sensor_id;sensor_type;location;lat;lon;timestamp;pressure;altitude;pressure_sealevel;temperature;humidity
43814;BME280;29669;55.706;37.656;2023-07-30T01:30:30;98944.31;;;15.37;74.23
43814;BME280;29669;55.706;37.656;2023-07-30T01:33:14;98960.81;;;15.38;74.79
43814;BME280;29669;55.706;37.656;2023-07-30T01:35:50;98953.94;;;15.37;74.69
43814;BME280;29669;55.706;37.656;2023-07-30T01:38:33;98958.59;;;15.41;74.67
43814;BME280;29669;55.706;37.656;2023-07-30T03:07:32;98982.66;;;16.35;73.51
43814;BME280;29669;55.706;37.656;2023-07-30T03:11:18;98997.50;;;16.41;73.41
43814;BME280;29669;55.706;37.656;2023-07-30T03:15:09;98994.56;;;16.56;73.20
43814;BME280;29669;55.706;37.656;2023-07-30T03:18:01;99004.28;;;16.67;73.17
43814;BME280;29669;55.706;37.656;2023-07-30T03:20:29;98999.31;;;16.77;72.98
43814;BME280;29669;55.706;37.656;2023-07-30T03:23:00;98992.75;;;16.86;73.08
43814;BME280;29669;55.706;37.656;2023-07-30T03:25:28;98993.47;;;16.93;72.82
43814;BME280;29669;55.706;37.656;2023-07-30T03:27:56;98998.03;;;16.98;72.47
43814;BME280;29669;55.706;37.656;2023-07-30T03:30:23;98999.09;;;17.08;72.61
43814;BME280;29669;55.706;37.656;2023-07-30T03:32:51;99000.31;;;17.24;72.30
43814;BME280;29669;55.706;37.656;2023-07-30T03:35:19;99004.88;;;17.40;71.94
43814;BME280;29669;55.706;37.656;2023-07-30T03:37:47;99002.66;;;17.55;71.86
43814;BME280;29669;55.706;37.656;2023-07-30T03:40:15;99004.88;;;17.69;71.43
43814;BME280;29669;55.706;37.656;2023-07-30T03:42:43;99010.69;;;17.83;71.14
43814;BME280;29669;55.706;37.656;2023-07-30T03:45:11;99005.00;;;17.98;70.74
43814;BME280;29669;55.706;37.656;2023-07-30T03:47:38;98999.63;;;18.04;70.56
43814;BME280;29669;55.706;37.656;2023-07-30T03:50:09;99006.13;;;18.13;70.70
43814;BME280;29669;55.706;37.656;2023-07-30T03:52:37;99015.38;;;18.16;70.42
43814;BME280;29669;55.706;37.656;2023-07-30T03:55:05;99008.88;;;18.18;69.74
43814;BME280;29669;55.706;37.656;2023-07-30T03:57:35;99015.03;;;18.24;69.85
43814;BME280;29669;55.706;37.656;2023-07-30T04:00:04;99023.72;;;18.24;69.53
43814;BME280;29669;55.706;37.656;2023-07-30T04:02:41;99024.84;;;18.28;69.60
43814;BME280;29669;55.706;37.656;2023-07-30T04:05:29;99024.41;;;18.31;69.40
43814;BME280;29669;55.706;37.656;2023-07-30T04:08:12;99031.94;;;18.28;68.91
43814;BME280;29669;55.706;37.656;2023-07-30T04:11:42;99026.44;;;18.29;69.16
43814;BME280;29669;55.706;37.656;2023-07-30T04:14:46;99026.78;;;18.33;68.42
43814;BME280;29669;55.706;37.656;2023-07-30T04:17:20;99029.19;;;18.34;68.61
43814;BME280;29669;55.706;37.656;2023-07-30T04:20:26;99030.56;;;18.37;68.07
43814;BME280;29669;55.706;37.656;2023-07-30T04:23:21;99032.28;;;18.43;68.05
43814;BME280;29669;55.706;37.656;2023-07-30T04:25:52;99037.41;;;18.49;67.62
43814;BME280;29669;55.706;37.656;2023-07-30T04:28:30;99032.63;;;18.46;67.51
43814;BME280;29669;55.706;37.656;2023-07-30T04:31:06;99033.78;;;18.50;67.52
43814;BME280;29669;55.706;37.656;2023-07-30T04:34:13;99042.78;;;18.54;67.12
43814;BME280;29669;55.706;37.656;2023-07-30T04:38:46;99048.38;;;18.69;66.88
43814;BME280;29669;55.706;37.656;2023-07-30T05:45:21;99071.31;;;19.70;63.00
43814;BME280;29669;55.706;37.656;2023-07-30T05:48:11;99078.53;;;19.63;63.26
43814;BME280;29669;55.706;37.656;2023-07-30T06:01:02;99075.28;;;19.73;62.60
43814;BME280;29669;55.706;37.656;2023-07-30T06:08:56;99064.75;;;19.89;62.16
43814;BME280;29669;55.706;37.656;2023-07-30T06:13:06;99060.16;;;19.96;62.23
43814;BME280;29669;55.706;37.656;2023-07-30T06:49:09;99032.59;;;20.20;60.98
43814;BME280;29669;55.706;37.656;2023-07-30T06:51:40;99038.75;;;20.26;61.17
43814;BME280;29669;55.706;37.656;2023-07-30T06:54:24;99044.41;;;20.34;60.85
43814;BME280;29669;55.706;37.656;2023-07-30T06:57:24;99032.94;;;20.45;60.43
43814;BME280;29669;55.706;37.656;2023-07-30T06:59:59;99035.94;;;20.54;60.39
43814;BME280;29669;55.706;37.656;2023-07-30T07:02:34;99026.81;;;20.61;59.40
43814;BME280;29669;55.706;37.656;2023-07-30T07:05:10;99026.81;;;20.61;59.38
43814;BME280;29669;55.706;37.656;2023-07-30T07:07:42;99037.13;;;20.63;59.13
43814;BME280;29669;55.706;37.656;2023-07-30T07:10:11;99031.91;;;20.68;59.19
43814;BME280;29669;55.706;37.656;2023-07-30T07:12:39;99028.31;;;20.74;58.86
43814;BME280;29669;55.706;37.656;2023-07-30T07:15:08;99052.22;;;20.89;58.92
43814;BME280;29669;55.706;37.656;2023-07-30T07:17:36;99027.25;;;20.97;58.10
43814;BME280;29669;55.706;37.656;2023-07-30T07:20:06;99031.47;;;20.98;57.87
43814;BME280;29669;55.706;37.656;2023-07-30T07:22:37;99027.06;;;21.03;58.15
43814;BME280;29669;55.706;37.656;2023-07-30T07:25:05;99036.19;;;21.17;57.73
43814;BME280;29669;55.706;37.656;2023-07-30T07:27:33;99031.75;;;21.23;57.81
43814;BME280;29669;55.706;37.656;2023-07-30T07:30:01;99022.63;;;21.35;57.98
43814;BME280;29669;55.706;37.656;2023-07-30T07:32:31;99032.59;;;21.55;57.82
43814;BME280;29669;55.706;37.656;2023-07-30T07:35:08;99028.06;;;21.50;56.53
43814;BME280;29669;55.706;37.656;2023-07-30T07:37:36;99031.97;;;21.48;57.14
43814;BME280;29669;55.706;37.656;2023-07-30T07:40:04;99029.41;;;21.53;57.28
43814;BME280;29669;55.706;37.656;2023-07-30T07:42:32;99014.69;;;21.62;56.66
43814;BME280;29669;55.706;37.656;2023-07-30T07:44:59;99034.22;;;21.61;56.42
43814;BME280;29669;55.706;37.656;2023-07-30T07:47:30;99028.88;;;21.56;56.18
43814;BME280;29669;55.706;37.656;2023-07-30T07:49:58;99027.59;;;21.59;56.05
43814;BME280;29669;55.706;37.656;2023-07-30T07:52:26;99017.91;;;21.69;56.30
43814;BME280;29669;55.706;37.656;2023-07-30T07:54:54;99015.91;;;21.81;56.36
43814;BME280;29669;55.706;37.656;2023-07-30T07:57:26;99017.88;;;21.96;55.74
43814;BME280;29669;55.706;37.656;2023-07-30T07:59:56;99028.22;;;22.02;54.77
43814;BME280;29669;55.706;37.656;2023-07-30T08:02:24;99008.72;;;22.08;54.75
43814;BME280;29669;55.706;37.656;2023-07-30T08:04:52;99010.38;;;22.24;54.52
43814;BME280;29669;55.706;37.656;2023-07-30T08:07:20;99016.06;;;22.48;54.17
43814;BME280;29669;55.706;37.656;2023-07-30T08:09:47;99011.41;;;22.65;53.90
43814;BME280;29669;55.706;37.656;2023-07-30T08:12:15;99033.88;;;22.63;53.41
43814;BME280;29669;55.706;37.656;2023-07-30T08:14:43;99031.50;;;22.61;53.49
43814;BME280;29669;55.706;37.656;2023-07-30T08:17:10;99015.69;;;22.81;53.47
43814;BME280;29669;55.706;37.656;2023-07-30T08:19:38;99025.31;;;23.12;52.81
43814;BME280;29669;55.706;37.656;2023-07-30T08:22:05;99021.38;;;23.30;52.04
43814;BME280;29669;55.706;37.656;2023-07-30T08:24:34;99028.53;;;23.29;52.47
43814;BME280;29669;55.706;37.656;2023-07-30T08:27:02;99028.50;;;23.24;51.87
43814;BME280;29669;55.706;37.656;2023-07-30T08:29:29;99020.56;;;23.24;51.79
43814;BME280;29669;55.706;37.656;2023-07-30T08:31:57;99023.53;;;23.53;51.75
43814;BME280;29669;55.706;37.656;2023-07-30T08:34:25;99024.31;;;23.89;51.33
43814;BME280;29669;55.706;37.656;2023-07-30T08:36:53;99038.09;;;24.06;50.62
43814;BME280;29669;55.706;37.656;2023-07-30T08:39:20;99025.63;;;24.11;50.88
43814;BME280;29669;55.706;37.656;2023-07-30T08:41:50;99031.44;;;24.28;50.35
43814;BME280;29669;55.706;37.656;2023-07-30T08:44:18;99036.47;;;24.35;49.73
43814;BME280;29669;55.706;37.656;2023-07-30T08:46:46;99028.78;;;24.34;49.58
43814;BME280;29669;55.706;37.656;2023-07-30T08:49:13;99032.50;;;24.22;49.38
43814;BME280;29669;55.706;37.656;2023-07-30T08:51:42;99023.75;;;24.27;49.71
43814;BME280;29669;55.706;37.656;2023-07-30T08:54:12;99027.66;;;24.50;49.87
43814;BME280;29669;55.706;37.656;2023-07-30T08:56:41;99032.88;;;24.70;49.61
43814;BME280;29669;55.706;37.656;2023-07-30T08:59:10;99032.03;;;24.89;49.65
43814;BME280;29669;55.706;37.656;2023-07-30T09:01:39;99023.78;;;24.96;49.19
43814;BME280;29669;55.706;37.656;2023-07-30T09:04:08;99031.22;;;24.89;53.30
43814;BME280;29669;55.706;37.656;2023-07-30T09:06:39;99028.25;;;25.00;53.88
43814;BME280;29669;55.706;37.656;2023-07-30T09:09:10;99024.81;;;24.95;54.41
43814;BME280;29669;55.706;37.656;2023-07-30T09:11:38;99029.13;;;24.86;54.48
43814;BME280;29669;55.706;37.656;2023-07-30T09:14:06;99031.50;;;24.87;54.23
43814;BME280;29669;55.706;37.656;2023-07-30T09:16:35;99037.66;;;24.83;53.98
43814;BME280;29669;55.706;37.656;2023-07-30T09:19:02;99030.97;;;24.85;54.54
43814;BME280;29669;55.706;37.656;2023-07-30T09:21:34;99028.63;;;24.79;54.17
43814;BME280;29669;55.706;37.656;2023-07-30T09:24:03;99025.88;;;24.99;54.24
43814;BME280;29669;55.706;37.656;2023-07-30T09:26:46;99037.94;;;25.25;52.83
43814;BME280;29669;55.706;37.656;2023-07-30T09:29:14;99041.44;;;25.15;52.94
43814;BME280;29669;55.706;37.656;2023-07-30T09:31:53;99033.72;;;25.19;52.87
43814;BME280;29669;55.706;37.656;2023-07-30T09:34:24;99042.59;;;25.48;52.72
43814;BME280;29669;55.706;37.656;2023-07-30T09:36:53;99037.50;;;25.52;52.77
43814;BME280;29669;55.706;37.656;2023-07-30T09:39:24;99040.44;;;25.50;52.85
43814;BME280;29669;55.706;37.656;2023-07-30T09:41:59;99033.34;;;25.41;52.79
43814;BME280;29669;55.706;37.656;2023-07-30T09:44:27;99028.56;;;25.38;52.83
43814;BME280;29669;55.706;37.656;2023-07-30T09:46:56;99041.34;;;25.31;52.26
43814;BME280;29669;55.706;37.656;2023-07-30T09:49:24;99040.53;;;25.35;51.89
43814;BME280;29669;55.706;37.656;2023-07-30T09:51:53;99028.34;;;25.29;49.08
43814;BME280;29669;55.706;37.656;2023-07-30T09:54:21;99035.28;;;25.25;48.54
43814;BME280;29669;55.706;37.656;2023-07-30T09:56:49;99047.72;;;25.40;46.79
43814;BME280;29669;55.706;37.656;2023-07-30T09:59:17;99047.59;;;25.55;45.64
43814;BME280;29669;55.706;37.656;2023-07-30T10:01:48;99047.94;;;25.77;44.42
43814;BME280;29669;55.706;37.656;2023-07-30T10:04:20;99047.22;;;26.00;44.04
43814;BME280;29669;55.706;37.656;2023-07-30T10:06:58;99050.28;;;26.41;43.78
43814;BME280;29669;55.706;37.656;2023-07-30T10:09:31;99050.69;;;26.29;42.78
43814;BME280;29669;55.706;37.656;2023-07-30T10:12:01;99046.91;;;26.06;43.29
43814;BME280;29669;55.706;37.656;2023-07-30T10:14:31;99048.63;;;25.92;43.19
43814;BME280;29669;55.706;37.656;2023-07-30T10:17:00;99041.28;;;25.79;42.73
43814;BME280;29669;55.706;37.656;2023-07-30T10:19:28;99045.78;;;25.50;42.01
43814;BME280;29669;55.706;37.656;2023-07-30T10:24:40;99052.88;;;25.16;42.56
43814;BME280;29669;55.706;37.656;2023-07-30T10:27:09;99051.31;;;25.10;42.72
43814;BME280;29669;55.706;37.656;2023-07-30T10:29:40;99057.13;;;25.12;42.59
43814;BME280;29669;55.706;37.656;2023-07-30T10:32:10;99052.13;;;25.05;42.12
43814;BME280;29669;55.706;37.656;2023-07-30T10:34:46;99056.19;;;24.88;41.92
43814;BME280;29669;55.706;37.656;2023-07-30T10:37:18;99053.59;;;24.83;42.24
43814;BME280;29669;55.706;37.656;2023-07-30T10:39:48;99065.28;;;24.77;42.46
43814;BME280;29669;55.706;37.656;2023-07-30T10:42:16;99055.25;;;24.49;42.93
43814;BME280;29669;55.706;37.656;2023-07-30T10:44:46;99055.03;;;24.30;43.02
43814;BME280;29669;55.706;37.656;2023-07-30T10:47:13;99053.72;;;24.17;42.80
43814;BME280;29669;55.706;37.656;2023-07-30T10:50:02;99063.03;;;24.10;42.63
43814;BME280;29669;55.706;37.656;2023-07-30T10:52:30;99052.69;;;24.08;42.86
43814;BME280;29669;55.706;37.656;2023-07-30T10:55:03;99055.88;;;24.10;42.67
43814;BME280;29669;55.706;37.656;2023-07-30T10:57:31;99055.56;;;24.37;42.82
43814;BME280;29669;55.706;37.656;2023-07-30T10:59:59;99046.16;;;24.70;42.14
43814;BME280;29669;55.706;37.656;2023-07-30T11:02:30;99042.91;;;24.93;41.18
43814;BME280;29669;55.706;37.656;2023-07-30T11:05:11;99046.41;;;24.78;40.18
43814;BME280;29669;55.706;37.656;2023-07-30T11:07:38;99053.09;;;24.66;40.09
43814;BME280;29669;55.706;37.656;2023-07-30T11:10:06;99058.13;;;24.72;40.27
43814;BME280;29669;55.706;37.656;2023-07-30T11:12:34;99046.66;;;24.82;40.11
43814;BME280;29669;55.706;37.656;2023-07-30T11:15:03;99050.09;;;24.92;40.11
43814;BME280;29669;55.706;37.656;2023-07-30T11:17:32;99042.56;;;25.09;40.08
43814;BME280;29669;55.706;37.656;2023-07-30T11:20:00;99045.81;;;25.40;40.36
43814;BME280;29669;55.706;37.656;2023-07-30T11:22:30;99046.50;;;25.89;39.23
43814;BME280;29669;55.706;37.656;2023-07-30T11:24:59;99044.16;;;26.17;38.96
43814;BME280;29669;55.706;37.656;2023-07-30T11:27:46;99052.16;;;26.17;39.06
43814;BME280;29669;55.706;37.656;2023-07-30T11:36:54;99037.72;;;26.46;38.51
43814;BME280;29669;55.706;37.656;2023-07-30T12:00:57;99059.94;;;25.74;38.33
43814;BME280;29669;55.706;37.656;2023-07-30T15:10:28;99015.16;;;37.76;19.10
43814;BME280;29669;55.706;37.656;2023-07-30T15:12:56;99004.88;;;38.30;18.65
43814;BME280;29669;55.706;37.656;2023-07-30T15:15:29;99014.25;;;38.36;18.70
43814;BME280;29669;55.706;37.656;2023-07-30T15:18:00;99029.50;;;38.71;18.06
43814;BME280;29669;55.706;37.656;2023-07-30T15:20:35;99021.13;;;37.85;17.98
43814;BME280;29669;55.706;37.656;2023-07-30T15:23:03;99031.16;;;37.43;18.57
43814;BME280;29669;55.706;37.656;2023-07-30T15:25:30;99024.28;;;37.11;18.60
43814;BME280;29669;55.706;37.656;2023-07-30T15:28:00;99025.13;;;36.80;19.03
43814;BME280;29669;55.706;37.656;2023-07-30T15:30:29;99026.69;;;37.16;19.04
43814;BME280;29669;55.706;37.656;2023-07-30T15:32:57;99016.38;;;37.21;19.01
43814;BME280;29669;55.706;37.656;2023-07-30T15:35:31;99042.81;;;37.09;18.76
43814;BME280;29669;55.706;37.656;2023-07-30T15:38:09;99030.84;;;36.91;19.02
43814;BME280;29669;55.706;37.656;2023-07-30T15:41:11;99041.25;;;36.57;18.57
43814;BME280;29669;55.706;37.656;2023-07-30T15:43:52;99027.22;;;36.05;19.19
43814;BME280;29669;55.706;37.656;2023-07-30T15:51:48;99033.66;;;36.63;18.80
43814;BME280;29669;55.706;37.656;2023-07-30T15:55:23;99029.91;;;37.21;18.30
43814;BME280;29669;55.706;37.656;2023-07-30T15:59:03;99039.25;;;37.24;18.15
43814;BME280;29669;55.706;37.656;2023-07-30T16:02:41;99038.88;;;38.05;17.83
43814;BME280;29669;55.706;37.656;2023-07-30T16:05:21;99043.16;;;38.51;17.58
43814;BME280;29669;55.706;37.656;2023-07-30T16:08:04;99046.22;;;37.82;17.28
43814;BME280;29669;55.706;37.656;2023-07-30T16:10:44;99056.13;;;36.82;18.18
43814;BME280;29669;55.706;37.656;2023-07-30T16:13:14;99048.56;;;35.67;18.93
43814;BME280;29669;55.706;37.656;2023-07-30T16:15:45;99064.50;;;34.92;19.12
43814;BME280;29669;55.706;37.656;2023-07-30T16:18:31;99049.72;;;34.50;19.87
43814;BME280;29669;55.706;37.656;2023-07-30T16:21:09;99057.09;;;34.41;19.77
43814;BME280;29669;55.706;37.656;2023-07-30T16:23:59;99066.50;;;34.35;19.92
43814;BME280;29669;55.706;37.656;2023-07-30T16:26:34;99048.78;;;34.34;20.02
43814;BME280;29669;55.706;37.656;2023-07-30T16:29:03;99054.94;;;33.90;20.19
43814;BME280;29669;55.706;37.656;2023-07-30T16:31:52;99057.94;;;33.23;20.88
43814;BME280;29669;55.706;37.656;2023-07-30T16:34:25;99059.22;;;32.67;21.48
43814;BME280;29669;55.706;37.656;2023-07-30T16:36:57;99062.63;;;32.47;22.29
43814;BME280;29669;55.706;37.656;2023-07-30T16:39:29;99061.34;;;32.07;22.81
43814;BME280;29669;55.706;37.656;2023-07-30T16:42:00;99056.31;;;30.94;23.97
43814;BME280;29669;55.706;37.656;2023-07-30T16:44:29;99064.81;;;29.51;26.02
43814;BME280;29669;55.706;37.656;2023-07-30T16:47:01;99056.63;;;28.17;27.78
43814;BME280;29669;55.706;37.656;2023-07-30T16:49:43;99070.63;;;27.21;29.60
43814;BME280;29669;55.706;37.656;2023-07-30T16:52:16;99065.53;;;26.59;30.44
43814;BME280;29669;55.706;37.656;2023-07-30T16:54:46;99069.41;;;26.19;31.29
43814;BME280;29669;55.706;37.656;2023-07-30T16:57:21;99071.59;;;25.78;32.22
43814;BME280;29669;55.706;37.656;2023-07-30T17:00:32;99076.91;;;25.45;32.35
43814;BME280;29669;55.706;37.656;2023-07-30T17:03:05;99071.94;;;25.23;33.14
43814;BME280;29669;55.706;37.656;2023-07-30T17:05:36;99082.41;;;25.04;33.65
43814;BME280;29669;55.706;37.656;2023-07-30T17:08:04;99082.75;;;24.88;34.00
43814;BME280;29669;55.706;37.656;2023-07-30T17:10:36;99089.97;;;24.72;34.47
43814;BME280;29669;55.706;37.656;2023-07-30T17:13:04;99092.91;;;24.56;34.78
43814;BME280;29669;55.706;37.656;2023-07-30T17:15:32;99076.78;;;24.37;35.48
43814;BME280;29669;55.706;37.656;2023-07-30T17:18:02;99090.06;;;24.22;36.03
43814;BME280;29669;55.706;37.656;2023-07-30T17:20:30;99097.25;;;24.06;35.96
43814;BME280;29669;55.706;37.656;2023-07-30T17:23:00;99097.47;;;23.90;36.68
43814;BME280;29669;55.706;37.656;2023-07-30T17:25:28;99106.75;;;23.82;36.94
43814;BME280;29669;55.706;37.656;2023-07-30T17:27:56;99106.22;;;23.70;36.94
43814;BME280;29669;55.706;37.656;2023-07-30T17:30:24;99103.28;;;23.57;37.22
43814;BME280;29669;55.706;37.656;2023-07-30T17:32:51;99112.53;;;23.49;37.65
43814;BME280;29669;55.706;37.656;2023-07-30T17:35:47;99110.91;;;23.43;37.88
43814;BME280;29669;55.706;37.656;2023-07-30T17:38:24;99121.78;;;23.37;37.70
43814;BME280;29669;55.706;37.656;2023-07-30T17:41:11;99117.47;;;23.25;38.03
43814;BME280;29669;55.706;37.656;2023-07-30T17:43:46;99110.25;;;23.11;38.38
43814;BME280;29669;55.706;37.656;2023-07-30T17:46:14;99113.94;;;23.00;38.74
43814;BME280;29669;55.706;37.656;2023-07-30T17:48:49;99122.88;;;22.89;39.07
43814;BME280;29669;55.706;37.656;2023-07-30T17:51:25;99127.63;;;22.82;39.44
43814;BME280;29669;55.706;37.656;2023-07-30T17:53:57;99121.50;;;22.76;39.59
43814;BME280;29669;55.706;37.656;2023-07-30T17:56:26;99128.09;;;22.74;39.55
43814;BME280;29669;55.706;37.656;2023-07-30T17:59:03;99130.69;;;22.64;39.95
43814;BME280;29669;55.706;37.656;2023-07-30T18:01:42;99132.19;;;22.55;40.09
43814;BME280;29669;55.706;37.656;2023-07-30T18:04:13;99127.91;;;22.48;40.34
43814;BME280;29669;55.706;37.656;2023-07-30T18:06:41;99135.56;;;22.40;40.48
43814;BME280;29669;55.706;37.656;2023-07-30T18:09:47;99132.56;;;22.31;40.51
43814;BME280;29669;55.706;37.656;2023-07-30T18:12:58;99140.47;;;22.26;41.15
43814;BME280;29669;55.706;37.656;2023-07-30T18:15:28;99136.72;;;22.22;41.10
43814;BME280;29669;55.706;37.656;2023-07-30T18:18:01;99126.97;;;22.23;41.11
43814;BME280;29669;55.706;37.656;2023-07-30T18:20:32;99128.25;;;22.20;41.53
43814;BME280;29669;55.706;37.656;2023-07-30T18:23:02;99132.44;;;22.16;41.60
43814;BME280;29669;55.706;37.656;2023-07-30T18:25:31;99134.25;;;22.11;41.76
43814;BME280;29669;55.706;37.656;2023-07-30T18:27:59;99126.03;;;22.07;41.55
43814;BME280;29669;55.706;37.656;2023-07-30T18:30:27;99132.34;;;22.01;41.80
43814;BME280;29669;55.706;37.656;2023-07-30T18:32:55;99122.00;;;21.95;42.21
43814;BME280;29669;55.706;37.656;2023-07-30T18:35:35;99126.16;;;21.86;42.13
43814;BME280;29669;55.706;37.656;2023-07-30T18:38:03;99137.44;;;21.81;42.54
43814;BME280;29669;55.706;37.656;2023-07-30T18:40:37;99125.28;;;21.80;42.65
43814;BME280;29669;55.706;37.656;2023-07-30T18:43:08;99135.06;;;21.80;42.79
43814;BME280;29669;55.706;37.656;2023-07-30T18:45:37;99138.66;;;21.74;43.09
43814;BME280;29669;55.706;37.656;2023-07-30T18:48:05;99123.81;;;21.68;43.43
43814;BME280;29669;55.706;37.656;2023-07-30T18:50:35;99116.59;;;21.58;43.79
43814;BME280;29669;55.706;37.656;2023-07-30T18:53:12;99123.41;;;21.54;43.89
43814;BME280;29669;55.706;37.656;2023-07-30T18:55:57;99125.03;;;21.55;43.74
43814;BME280;29669;55.706;37.656;2023-07-30T18:58:59;99128.09;;;21.47;44.38
43814;BME280;29669;55.706;37.656;2023-07-30T19:02:08;99125.41;;;21.42;44.33
43814;BME280;29669;55.706;37.656;2023-07-30T19:04:38;99120.88;;;21.37;44.52
43814;BME280;29669;55.706;37.656;2023-07-30T19:07:17;99119.47;;;21.30;44.97
43814;BME280;29669;55.706;37.656;2023-07-30T19:10:34;99123.16;;;21.29;44.90
43814;BME280;29669;55.706;37.656;2023-07-30T19:13:02;99129.44;;;21.23;45.12
43814;BME280;29669;55.706;37.656;2023-07-30T19:15:32;99123.50;;;21.16;45.26
43814;BME280;29669;55.706;37.656;2023-07-30T19:18:00;99123.47;;;21.11;45.48
43814;BME280;29669;55.706;37.656;2023-07-30T19:20:34;99118.13;;;21.06;45.74
43814;BME280;29669;55.706;37.656;2023-07-30T19:23:31;99126.59;;;21.08;45.81
43814;BME280;29669;55.706;37.656;2023-07-30T19:25:59;99125.50;;;21.04;45.86
43814;BME280;29669;55.706;37.656;2023-07-30T19:28:29;99125.41;;;20.99;46.16
43814;BME280;29669;55.706;37.656;2023-07-30T19:31:09;99134.06;;;20.94;46.43
43814;BME280;29669;55.706;37.656;2023-07-30T19:33:47;99127.91;;;20.89;46.60
43814;BME280;29669;55.706;37.656;2023-07-30T19:36:15;99123.06;;;20.81;46.72
43814;BME280;29669;55.706;37.656;2023-07-30T19:38:44;99127.78;;;20.79;47.03
43814;BME280;29669;55.706;37.656;2023-07-30T19:41:12;99119.81;;;20.74;47.04
43814;BME280;29669;55.706;37.656;2023-07-30T19:43:56;99130.34;;;20.74;47.18
43814;BME280;29669;55.706;37.656;2023-07-30T19:46:24;99120.53;;;20.69;47.16
43814;BME280;29669;55.706;37.656;2023-07-30T19:48:53;99120.72;;;20.63;47.28
43814;BME280;29669;55.706;37.656;2023-07-30T19:51:21;99120.63;;;20.57;47.54
43814;BME280;29669;55.706;37.656;2023-07-30T19:53:54;99130.31;;;20.52;47.58
43814;BME280;29669;55.706;37.656;2023-07-30T19:56:22;99126.09;;;20.51;47.87
43814;BME280;29669;55.706;37.656;2023-07-30T19:58:50;99127.84;;;20.45;48.11
43814;BME280;29669;55.706;37.656;2023-07-30T20:01:18;99140.47;;;20.43;48.21
43814;BME280;29669;55.706;37.656;2023-07-30T20:03:48;99129.28;;;20.36;48.26
43814;BME280;29669;55.706;37.656;2023-07-30T20:06:19;99135.59;;;20.35;48.53
43814;BME280;29669;55.706;37.656;2023-07-30T20:08:47;99132.91;;;20.30;48.63
43814;BME280;29669;55.706;37.656;2023-07-30T20:11:16;99141.84;;;20.29;48.50
43814;BME280;29669;55.706;37.656;2023-07-30T20:13:44;99138.06;;;20.25;48.90
43814;BME280;29669;55.706;37.656;2023-07-30T20:16:13;99152.78;;;20.21;48.92
43814;BME280;29669;55.706;37.656;2023-07-30T20:18:41;99146.72;;;20.21;49.01
43814;BME280;29669;55.706;37.656;2023-07-30T20:21:10;99152.22;;;20.19;49.00
43814;BME280;29669;55.706;37.656;2023-07-30T20:23:37;99144.31;;;20.19;49.20
43814;BME280;29669;55.706;37.656;2023-07-30T20:26:16;99150.63;;;20.18;49.34
43814;BME280;29669;55.706;37.656;2023-07-30T20:28:47;99142.06;;;20.11;49.30
43814;BME280;29669;55.706;37.656;2023-07-30T20:31:15;99142.50;;;20.08;49.23
43814;BME280;29669;55.706;37.656;2023-07-30T20:33:43;99146.66;;;20.04;49.52
43814;BME280;29669;55.706;37.656;2023-07-30T20:36:11;99138.94;;;19.98;49.64
43814;BME280;29669;55.706;37.656;2023-07-30T20:38:39;99128.47;;;19.86;49.65
43814;BME280;29669;55.706;37.656;2023-07-30T20:41:06;99140.50;;;19.82;50.14
43814;BME280;29669;55.706;37.656;2023-07-30T20:43:34;99144.50;;;19.85;50.10
43814;BME280;29669;55.706;37.656;2023-07-30T20:46:08;99131.97;;;19.75;50.18
43814;BME280;29669;55.706;37.656;2023-07-30T20:48:37;99138.66;;;19.66;50.52
43814;BME280;29669;55.706;37.656;2023-07-30T20:51:06;99131.94;;;19.58;50.54
43814;BME280;29669;55.706;37.656;2023-07-30T20:53:34;99131.56;;;19.55;50.62
43814;BME280;29669;55.706;37.656;2023-07-30T20:56:02;99130.31;;;19.57;50.67
43814;BME280;29669;55.706;37.656;2023-07-30T20:58:30;99132.25;;;19.62;50.90
43814;BME280;29669;55.706;37.656;2023-07-30T21:01:00;99130.63;;;19.61;50.62
43814;BME280;29669;55.706;37.656;2023-07-30T21:03:31;99132.94;;;19.57;50.81
43814;BME280;29669;55.706;37.656;2023-07-30T21:06:03;99129.44;;;19.52;50.73
43814;BME280;29669;55.706;37.656;2023-07-30T21:08:30;99125.22;;;19.51;50.95
43814;BME280;29669;55.706;37.656;2023-07-30T21:10:58;99121.44;;;19.47;50.95
43814;BME280;29669;55.706;37.656;2023-07-30T21:13:26;99122.47;;;19.46;51.18
43814;BME280;29669;55.706;37.656;2023-07-30T21:15:54;99127.41;;;19.42;51.39
43814;BME280;29669;55.706;37.656;2023-07-30T21:18:22;99133.94;;;19.40;51.39
43814;BME280;29669;55.706;37.656;2023-07-30T21:20:49;99133.84;;;19.35;51.51
43814;BME280;29669;55.706;37.656;2023-07-30T21:23:17;99141.63;;;19.30;51.52
43814;BME280;29669;55.706;37.656;2023-07-30T21:25:44;99144.13;;;19.25;51.82
43814;BME280;29669;55.706;37.656;2023-07-30T21:28:12;99137.78;;;19.21;52.02
43814;BME280;29669;55.706;37.656;2023-07-30T21:30:44;99142.47;;;19.19;52.03
43814;BME280;29669;55.706;37.656;2023-07-30T21:33:12;99146.91;;;19.18;51.95
43814;BME280;29669;55.706;37.656;2023-07-30T21:35:52;99154.00;;;19.18;51.94
43814;BME280;29669;55.706;37.656;2023-07-30T21:38:32;99144.53;;;19.17;51.92
43814;BME280;29669;55.706;37.656;2023-07-30T21:41:00;99151.84;;;19.15;52.11
43814;BME280;29669;55.706;37.656;2023-07-30T21:43:29;99155.03;;;19.17;52.23
43814;BME280;29669;55.706;37.656;2023-07-30T21:45:57;99158.94;;;19.14;52.31
43814;BME280;29669;55.706;37.656;2023-07-30T21:48:26;99160.19;;;19.12;52.37
43814;BME280;29669;55.706;37.656;2023-07-30T21:51:00;99153.25;;;19.06;52.39
43814;BME280;29669;55.706;37.656;2023-07-30T21:53:31;99162.16;;;19.05;52.56
43814;BME280;29669;55.706;37.656;2023-07-30T21:55:58;99162.63;;;19.02;52.92
43814;BME280;29669;55.706;37.656;2023-07-30T21:58:26;99151.97;;;18.97;52.99
43814;BME280;29669;55.706;37.656;2023-07-30T22:00:55;99152.69;;;18.92;53.00